createdAt,value
2023-01-23T00:01:39.206Z,52.50
2023-01-23T00:04:07.195Z,52.40
2023-01-23T00:06:35.314Z,52.10
2023-01-23T00:09:03.234Z,52.10
2023-01-23T00:11:32.418Z,52.40
2023-01-23T00:14:00.656Z,52.80
2023-01-23T00:16:31.254Z,52.70
2023-01-23T00:18:59.228Z,53.10
2023-01-23T00:21:28.382Z,52.90
2023-01-23T00:23:57.128Z,53.10
2023-01-23T00:26:26.853Z,52.90
2023-01-23T00:28:56.458Z,53.20
2023-01-23T00:31:26.079Z,52.80
2023-01-23T00:33:55.380Z,53.50
2023-01-23T00:36:23.766Z,53.00
2023-01-23T00:38:51.503Z,52.90
2023-01-23T00:41:19.675Z,53.20
2023-01-23T00:43:48.254Z,53.20
2023-01-23T00:46:17.405Z,53.00
2023-01-23T00:48:45.635Z,53.40
2023-01-23T00:51:13.495Z,53.40
2023-01-23T00:53:41.453Z,53.20
2023-01-23T00:56:09.356Z,53.30
2023-01-23T00:58:37.730Z,53.00
2023-01-23T01:01:06.070Z,52.90
2023-01-23T01:03:35.529Z,53.20
2023-01-23T01:06:03.405Z,53.00
2023-01-23T01:08:31.338Z,52.60
2023-01-23T01:10:59.178Z,52.90
2023-01-23T01:13:26.960Z,52.70
2023-01-23T01:15:55.556Z,53.00
2023-01-23T01:18:23.846Z,52.70
2023-01-23T01:20:53.256Z,52.80
2023-01-23T01:23:21.258Z,52.80
2023-01-23T01:25:49.168Z,52.20
2023-01-23T01:28:17.362Z,52.60
2023-01-23T01:30:45.307Z,52.90
2023-01-23T01:33:13.347Z,52.90
2023-01-23T01:35:42.811Z,53.10
2023-01-23T01:38:12.150Z,52.80
2023-01-23T01:40:40.462Z,53.00
2023-01-23T01:43:10.048Z,53.10
2023-01-23T01:46:08.049Z,52.80
2023-01-23T01:48:38.942Z,53.40
2023-01-23T01:51:08.995Z,53.20
2023-01-23T01:53:38.364Z,53.00
2023-01-23T01:56:07.172Z,53.10
2023-01-23T01:58:35.114Z,53.00
2023-01-23T02:01:03.151Z,53.00
2023-01-23T02:03:31.152Z,52.50
2023-01-23T02:05:59.067Z,52.70
2023-01-23T02:08:29.100Z,53.10
2023-01-23T02:11:02.111Z,53.10
2023-01-23T02:13:33.749Z,53.00
2023-01-23T02:16:02.737Z,53.10
2023-01-23T02:18:31.239Z,52.80
2023-01-23T02:21:00.752Z,52.90
2023-01-23T02:23:43.887Z,52.50
2023-01-23T02:26:15.021Z,52.70
2023-01-23T02:28:45.875Z,52.50
2023-01-23T02:31:14.540Z,52.30
2023-01-23T02:33:48.949Z,52.40
2023-01-23T02:36:17.408Z,52.10
2023-01-23T02:39:02.481Z,52.20
2023-01-23T02:41:32.583Z,52.20
2023-01-23T02:44:02.095Z,52.10
2023-01-23T02:46:30.052Z,52.20
2023-01-23T02:48:57.867Z,52.30
2023-01-23T02:51:25.825Z,52.20
2023-01-23T02:53:53.725Z,52.20
2023-01-23T02:56:21.932Z,52.90
2023-01-23T02:59:08.853Z,52.30
2023-01-23T03:01:36.998Z,52.20
2023-01-23T03:04:06.402Z,52.40
2023-01-23T03:06:38.060Z,52.50
2023-01-23T03:09:10.431Z,52.10
2023-01-23T03:11:40.022Z,52.70
2023-01-23T03:14:10.378Z,52.40
2023-01-23T03:16:38.822Z,52.60
2023-01-23T03:19:08.915Z,52.40
2023-01-23T03:21:38.239Z,52.50
2023-01-23T03:24:06.556Z,52.60
2023-01-23T03:26:34.507Z,52.70
2023-01-23T03:29:20.106Z,52.50
2023-01-23T03:31:50.151Z,52.60
2023-01-23T03:34:19.126Z,52.50
2023-01-23T03:36:47.043Z,52.60
2023-01-23T03:39:32.834Z,52.70
2023-01-23T03:42:00.921Z,52.80
2023-01-23T03:44:29.135Z,52.80
2023-01-23T03:46:58.420Z,52.80
2023-01-23T03:49:26.608Z,52.80
2023-01-23T03:51:54.288Z,52.60
2023-01-23T03:54:22.499Z,52.60
2023-01-23T03:56:50.184Z,52.70
2023-01-23T03:59:18.199Z,52.80
2023-01-23T04:01:46.048Z,52.50
2023-01-23T04:04:15.093Z,52.60
2023-01-23T04:06:42.776Z,52.70
2023-01-23T04:09:10.553Z,52.60
2023-01-23T04:11:38.439Z,52.60
2023-01-23T04:14:06.112Z,52.70
2023-01-23T04:16:33.927Z,52.80
2023-01-23T04:19:01.647Z,52.70
2023-01-23T04:21:31.089Z,53.10
2023-01-23T04:23:58.785Z,52.90
2023-01-23T04:26:26.926Z,52.90
2023-01-23T04:28:54.608Z,52.70
2023-01-23T04:31:22.790Z,52.60
2023-01-23T04:33:50.692Z,52.40
2023-01-23T04:36:19.106Z,52.50
2023-01-23T04:38:48.348Z,52.80
2023-01-23T04:41:19.389Z,52.40
2023-01-23T04:43:47.238Z,52.40
2023-01-23T04:46:15.293Z,52.30
2023-01-23T04:48:43.863Z,52.60
2023-01-23T04:51:11.812Z,52.40
2023-01-23T04:53:40.165Z,52.30
2023-01-23T04:56:09.651Z,52.60
2023-01-23T04:58:38.041Z,53.00
2023-01-23T05:01:06.390Z,52.90
2023-01-23T05:03:35.509Z,52.80
2023-01-23T05:06:03.387Z,52.40
2023-01-23T05:08:31.281Z,52.60
2023-01-23T05:10:59.039Z,52.80
2023-01-23T05:13:28.222Z,52.40
2023-01-23T05:15:56.210Z,52.30
2023-01-23T05:18:24.146Z,52.60
2023-01-23T05:20:52.080Z,52.70
2023-01-23T05:23:19.985Z,52.40
2023-01-23T05:25:48.428Z,52.70
2023-01-23T05:28:16.295Z,52.60
2023-01-23T05:30:45.733Z,52.10
2023-01-23T05:33:13.752Z,52.60
2023-01-23T05:35:42.196Z,52.40
2023-01-23T05:38:10.842Z,52.40
2023-01-23T05:40:39.105Z,52.50
2023-01-23T05:43:07.126Z,52.10
2023-01-23T05:45:35.376Z,52.70
2023-01-23T05:48:05.219Z,52.40
2023-01-23T05:50:34.564Z,52.40
2023-01-23T05:53:02.428Z,52.70
2023-01-23T05:55:30.732Z,52.60
2023-01-23T05:57:58.511Z,52.60
2023-01-23T06:00:26.995Z,52.40
2023-01-23T06:02:54.797Z,52.30
2023-01-23T06:05:23.930Z,52.20
2023-01-23T06:07:51.703Z,51.70
2023-01-23T06:10:19.816Z,52.40
2023-01-23T06:12:48.678Z,52.30
2023-01-23T06:15:16.770Z,52.60
2023-01-23T06:17:44.781Z,52.60
2023-01-23T06:20:13.316Z,52.50
2023-01-23T06:22:42.871Z,52.70
2023-01-23T06:25:11.406Z,52.60
2023-01-23T06:27:39.579Z,52.60
2023-01-23T06:30:08.688Z,52.40
2023-01-23T06:32:36.367Z,52.60
2023-01-23T06:35:04.780Z,52.30
2023-01-23T06:37:32.810Z,52.10
2023-01-23T06:40:02.784Z,52.40
2023-01-23T06:42:30.846Z,52.30
2023-01-23T06:44:59.275Z,52.50
2023-01-23T06:47:27.342Z,52.10
2023-01-23T06:49:55.804Z,51.70
2023-01-23T06:52:23.889Z,51.60
2023-01-23T06:54:52.395Z,52.40
2023-01-23T06:57:21.778Z,51.90
2023-01-23T06:59:49.642Z,51.60
2023-01-23T07:02:17.639Z,51.90
2023-01-23T07:04:45.536Z,52.20
2023-01-23T07:07:13.347Z,52.10
2023-01-23T07:09:41.109Z,52.40
2023-01-23T07:12:09.184Z,52.40
2023-01-23T07:14:38.689Z,52.10
2023-01-23T07:17:07.067Z,52.10
2023-01-23T07:19:35.018Z,52.00
2023-01-23T07:22:03.686Z,52.30
2023-01-23T07:24:32.498Z,52.20
2023-01-23T07:27:00.868Z,51.90
2023-01-23T07:29:29.017Z,52.10
2023-01-23T07:32:01.300Z,52.50
2023-01-23T07:34:29.362Z,52.00
2023-01-23T07:36:57.392Z,52.60
2023-01-23T07:39:26.005Z,52.60
2023-01-23T07:41:54.104Z,52.10
2023-01-23T07:44:23.338Z,52.30
2023-01-23T07:46:51.439Z,52.10
2023-01-23T07:49:21.570Z,52.20
2023-01-23T07:51:49.658Z,52.20
2023-01-23T07:54:17.617Z,52.00
2023-01-23T07:56:45.465Z,52.10
2023-01-23T07:59:13.470Z,52.40
2023-01-23T08:01:41.331Z,52.30
2023-01-23T08:04:09.550Z,52.40
2023-01-23T08:06:38.992Z,52.50
2023-01-23T08:09:07.006Z,52.40
2023-01-23T08:11:35.032Z,52.80
2023-01-23T08:14:03.453Z,52.80
2023-01-23T08:16:31.516Z,52.20
2023-01-23T08:18:59.922Z,52.70
2023-01-23T08:21:28.094Z,52.70
2023-01-23T08:23:57.576Z,52.30
2023-01-23T08:26:25.556Z,52.70
2023-01-23T08:28:54.339Z,52.50
2023-01-23T08:31:22.999Z,52.40
2023-01-23T08:33:51.115Z,52.60
2023-01-23T08:36:19.668Z,52.50
2023-01-23T08:38:48.127Z,52.20
2023-01-23T08:41:17.809Z,52.50
2023-01-23T08:43:45.808Z,52.60
2023-01-23T08:46:14.452Z,52.30
2023-01-23T08:48:42.419Z,52.50
2023-01-23T08:51:11.702Z,52.60
2023-01-23T08:53:40.366Z,52.60
2023-01-23T08:56:09.349Z,52.30
2023-01-23T08:58:39.247Z,52.40
2023-01-23T09:01:07.271Z,52.30
2023-01-23T09:03:35.272Z,52.00
2023-01-23T09:06:03.419Z,52.50
2023-01-23T09:08:31.621Z,52.50
2023-01-23T09:11:01.623Z,52.30
2023-01-23T09:13:30.169Z,52.30
2023-01-23T09:15:59.646Z,52.10
2023-01-23T09:18:27.843Z,52.20
2023-01-23T09:20:56.433Z,52.50
2023-01-23T09:23:24.590Z,52.40
2023-01-23T09:25:52.705Z,52.40
2023-01-23T09:28:20.797Z,52.40
2023-01-23T09:30:48.707Z,52.50
2023-01-23T09:33:18.141Z,52.30
2023-01-23T09:35:46.348Z,52.30
2023-01-23T09:38:14.108Z,52.30
2023-01-23T09:40:47.131Z,52.00
2023-01-23T09:43:16.938Z,52.10
2023-01-23T09:45:48.286Z,52.00
2023-01-23T09:48:21.155Z,51.80
2023-01-23T09:50:54.927Z,51.90
2023-01-23T09:53:23.725Z,52.00
2023-01-23T09:55:56.680Z,52.00
2023-01-23T09:58:28.718Z,52.10
2023-01-23T10:00:56.934Z,51.80
2023-01-23T10:03:27.772Z,51.70
2023-01-23T10:06:02.319Z,51.80
2023-01-23T10:08:34.608Z,51.70
2023-01-23T10:11:04.318Z,51.70
2023-01-23T10:13:48.527Z,51.80
2023-01-23T10:16:49.955Z,52.00
2023-01-23T10:19:24.675Z,52.10
2023-01-23T10:21:54.363Z,51.90
2023-01-23T10:24:38.032Z,51.90
2023-01-23T10:27:16.636Z,51.80
2023-01-23T10:29:46.747Z,52.00
2023-01-23T10:32:23.059Z,51.80
2023-01-23T10:34:56.130Z,51.80
2023-01-23T10:37:32.369Z,51.60
2023-01-23T10:40:01.202Z,51.50
2023-01-23T10:42:29.278Z,52.50
2023-01-23T10:44:57.284Z,53.00
2023-01-23T10:47:32.724Z,53.00
2023-01-23T10:50:02.441Z,52.80
2023-01-23T10:52:32.836Z,52.80
2023-01-23T10:55:00.807Z,52.50
2023-01-23T10:57:30.206Z,52.50
2023-01-23T11:00:00.562Z,52.10
2023-01-23T11:02:29.958Z,52.30
2023-01-23T11:04:57.956Z,52.20
2023-01-23T11:07:27.840Z,52.00
2023-01-23T11:09:56.953Z,52.10
2023-01-23T11:12:26.515Z,52.00
2023-01-23T11:15:11.977Z,51.50
2023-01-23T11:17:39.877Z,51.70
2023-01-23T11:20:12.264Z,51.60
2023-01-23T11:22:42.813Z,51.60
2023-01-23T11:25:29.664Z,51.30
2023-01-23T11:27:58.351Z,51.40
2023-01-23T11:30:34.406Z,51.30
2023-01-23T11:33:05.898Z,51.10
2023-01-23T11:35:48.420Z,51.30
2023-01-23T11:38:27.376Z,51.30
2023-01-23T11:40:58.310Z,50.90
2023-01-23T11:43:26.313Z,51.30
2023-01-23T11:46:19.187Z,51.30
2023-01-23T11:49:09.762Z,51.50
2023-01-23T11:51:39.000Z,51.80
2023-01-23T11:54:18.413Z,51.70
2023-01-23T11:57:03.150Z,51.70
2023-01-23T11:59:46.104Z,51.80
2023-01-23T12:02:39.486Z,51.80
2023-01-23T12:05:26.116Z,51.80
2023-01-23T12:07:58.327Z,52.20
2023-01-23T12:10:29.012Z,52.10
2023-01-23T12:13:06.495Z,51.90
2023-01-23T12:15:39.316Z,52.00
2023-01-23T12:18:12.796Z,52.00
2023-01-23T12:20:46.728Z,51.80
2023-01-23T12:23:23.730Z,51.50
2023-01-23T12:25:58.456Z,52.00
2023-01-23T12:28:41.391Z,51.80
2023-01-23T12:31:14.994Z,51.80
2023-01-23T12:33:56.753Z,51.80
2023-01-23T12:36:59.437Z,51.40
2023-01-23T12:39:45.845Z,51.70
2023-01-23T12:42:16.977Z,51.20
2023-01-23T12:44:49.048Z,51.30
2023-01-23T12:47:18.955Z,51.20
2023-01-23T12:49:49.548Z,51.40
2023-01-23T12:52:19.289Z,51.10
2023-01-23T12:54:49.530Z,51.00
2023-01-23T12:57:52.344Z,50.80
2023-01-23T13:00:46.666Z,51.50
2023-01-23T13:03:31.274Z,50.70
2023-01-23T13:06:09.977Z,51.00
2023-01-23T13:08:59.994Z,50.60
2023-01-23T13:11:42.035Z,50.50
2023-01-23T13:14:25.548Z,50.40
2023-01-23T13:16:58.922Z,50.30
2023-01-23T13:19:44.831Z,50.60
2023-01-23T13:22:28.600Z,50.40
2023-01-23T13:25:14.197Z,50.80
2023-01-23T13:27:47.290Z,50.40
2023-01-23T13:30:45.203Z,50.80
2023-01-23T13:33:51.258Z,51.00
2023-01-23T13:36:33.066Z,51.00
2023-01-23T13:46:13.520Z,50.80
2023-01-23T14:21:42.012Z,51.50
2023-01-23T14:24:21.827Z,51.30
2023-01-23T14:26:51.022Z,51.00
2023-01-23T14:29:23.236Z,51.60
2023-01-23T14:31:52.784Z,51.60
2023-01-23T14:34:21.657Z,51.20
2023-01-23T14:36:51.873Z,50.90
2023-01-23T14:39:21.022Z,51.00
2023-01-23T14:41:49.177Z,50.60
2023-01-23T14:44:20.868Z,51.00
2023-01-23T14:46:52.315Z,50.80
2023-01-23T14:49:24.165Z,50.80
2023-01-23T14:51:59.789Z,50.60
2023-01-23T14:54:32.545Z,50.70
2023-01-23T14:57:01.906Z,51.00
2023-01-23T14:59:32.022Z,50.60
2023-01-23T15:02:13.003Z,50.50
2023-01-23T15:04:44.400Z,50.70
2023-01-23T15:07:14.627Z,50.90
2023-01-23T15:09:42.788Z,50.40
2023-01-23T15:12:16.813Z,50.50
2023-01-23T15:14:44.885Z,51.40
2023-01-23T15:17:16.155Z,51.50
2023-01-23T15:19:45.357Z,51.30
2023-01-23T15:22:19.847Z,51.00
2023-01-23T15:24:47.807Z,51.30
2023-01-23T15:27:25.114Z,51.70
2023-01-23T15:29:53.068Z,51.50
2023-01-23T15:32:25.598Z,51.10
2023-01-23T15:34:55.580Z,51.40
2023-01-23T15:37:24.389Z,50.80
2023-01-23T15:39:53.503Z,51.10
2023-01-23T15:42:29.614Z,51.70
2023-01-23T15:45:01.189Z,51.90
2023-01-23T15:47:31.460Z,51.40
2023-01-23T15:50:01.471Z,51.80
2023-01-23T15:52:30.185Z,51.70
2023-01-23T15:54:59.130Z,51.30
2023-01-23T15:57:26.999Z,51.70
2023-01-23T15:59:55.073Z,50.80
2023-01-23T16:02:31.121Z,51.00
2023-01-23T16:05:02.017Z,51.10
2023-01-23T16:07:34.179Z,51.30
2023-01-23T16:10:02.216Z,51.20
2023-01-23T16:12:30.757Z,51.10
2023-01-23T16:14:58.765Z,50.80
2023-01-23T16:17:26.799Z,51.20
2023-01-23T16:19:55.631Z,51.20
2023-01-23T16:22:27.044Z,51.00
2023-01-23T16:24:54.902Z,51.00
2023-01-23T16:27:27.136Z,51.10
2023-01-23T16:29:55.284Z,51.90
2023-01-23T16:32:23.213Z,51.70
2023-01-23T16:34:51.085Z,51.70
2023-01-23T16:37:19.084Z,51.30
2023-01-23T16:39:48.535Z,51.70
2023-01-23T16:42:18.117Z,51.00
2023-01-23T16:44:45.945Z,52.00
2023-01-23T16:47:13.698Z,51.60
2023-01-23T16:49:54.516Z,52.00
2023-01-23T16:52:30.460Z,52.20
2023-01-23T16:54:59.556Z,52.10
2023-01-23T16:57:27.500Z,52.20
2023-01-23T16:59:56.459Z,52.00
2023-01-23T17:02:27.116Z,52.10
2023-01-23T17:04:55.097Z,52.60
2023-01-23T17:07:22.904Z,52.20
2023-01-23T17:09:51.710Z,52.10
2023-01-23T17:12:23.261Z,51.90
2023-01-23T17:14:52.547Z,51.60
2023-01-23T17:17:23.408Z,51.50
2023-01-23T17:19:51.206Z,51.30
2023-01-23T17:22:20.352Z,51.20
2023-01-23T17:24:48.167Z,51.30
2023-01-23T17:27:15.991Z,51.50
2023-01-23T17:29:45.298Z,51.70
2023-01-23T17:32:20.980Z,51.50
2023-01-23T17:34:50.470Z,51.00
2023-01-23T17:37:20.615Z,51.60
2023-01-23T17:39:48.580Z,51.40
2023-01-23T17:42:16.460Z,51.30
2023-01-23T17:44:45.636Z,51.10
2023-01-23T17:47:13.556Z,51.00
2023-01-23T17:49:41.335Z,52.10
2023-01-23T17:52:11.196Z,51.70
2023-01-23T17:54:39.114Z,52.00
2023-01-23T17:57:06.936Z,51.40
2023-01-23T17:59:34.646Z,51.90
2023-01-23T18:02:03.729Z,51.50
2023-01-23T18:04:31.712Z,51.80
2023-01-23T18:06:59.938Z,51.80
2023-01-23T18:09:28.271Z,51.20
2023-01-23T18:11:56.283Z,51.30
2023-01-23T18:14:31.523Z,51.60
2023-01-23T18:17:00.056Z,51.80
2023-01-23T18:19:30.279Z,51.80
2023-01-23T18:21:58.589Z,51.80
2023-01-23T18:24:28.296Z,51.80
2023-01-23T18:26:59.099Z,51.40
2023-01-23T18:29:35.359Z,51.70
2023-01-23T18:32:13.808Z,51.90
2023-01-23T18:34:46.612Z,51.50
2023-01-23T18:37:17.634Z,52.00
2023-01-23T18:39:58.865Z,52.30
2023-01-23T18:42:30.298Z,51.90
2023-01-23T18:45:00.159Z,52.20
2023-01-23T18:47:28.234Z,51.70
2023-01-23T18:49:58.168Z,52.20
2023-01-23T18:52:28.412Z,51.80
2023-01-23T18:55:00.175Z,52.00
2023-01-23T18:57:33.662Z,52.10
2023-01-23T19:00:05.772Z,51.90
2023-01-23T19:02:36.651Z,52.00
2023-01-23T19:05:25.154Z,52.00
2023-01-23T19:07:53.481Z,51.10
2023-01-23T19:10:22.627Z,51.90
2023-01-23T19:12:57.866Z,52.10
2023-01-23T19:15:28.962Z,51.60
2023-01-23T19:18:01.345Z,52.00
2023-01-23T19:20:32.831Z,51.90
2023-01-23T19:23:05.947Z,51.80
2023-01-23T19:25:34.123Z,51.80
2023-01-23T19:28:02.094Z,51.60
2023-01-23T19:30:30.980Z,51.90
2023-01-23T19:32:58.947Z,51.80
2023-01-23T19:35:27.297Z,51.60
2023-01-23T19:37:56.930Z,51.90
2023-01-23T19:40:24.769Z,51.80
2023-01-23T19:43:09.171Z,51.90
2023-01-23T19:45:41.422Z,51.70
2023-01-23T19:48:09.607Z,51.80
2023-01-23T19:50:37.679Z,51.60
2023-01-23T19:53:07.109Z,51.90
2023-01-23T19:55:36.297Z,51.60
2023-01-23T19:58:04.331Z,52.00
2023-01-23T20:00:33.711Z,51.80
2023-01-23T20:03:01.657Z,51.70
2023-01-23T20:05:29.731Z,51.70
2023-01-23T20:07:58.724Z,51.80
2023-01-23T20:10:28.183Z,51.60
2023-01-23T20:12:56.867Z,51.10
2023-01-23T20:15:25.758Z,51.80
2023-01-23T20:17:53.870Z,51.70
2023-01-23T20:20:22.243Z,51.70
2023-01-23T20:22:50.475Z,51.80
2023-01-23T20:25:18.580Z,52.00
2023-01-23T20:27:48.014Z,52.30
2023-01-23T20:30:17.595Z,52.40
2023-01-23T20:32:45.550Z,52.00
2023-01-23T20:35:13.434Z,52.00
2023-01-23T20:37:41.433Z,52.20
2023-01-23T20:40:10.782Z,51.80
2023-01-23T20:42:38.859Z,52.60
2023-01-23T20:45:09.404Z,52.50
2023-01-23T20:47:37.261Z,52.80
2023-01-23T20:50:05.721Z,52.60
2023-01-23T20:52:51.150Z,52.50
2023-01-23T20:55:19.147Z,52.60
2023-01-23T20:58:04.462Z,52.40
2023-01-23T21:00:33.899Z,52.30
2023-01-23T21:03:01.954Z,52.40
2023-01-23T21:05:30.012Z,52.80
2023-01-23T21:07:57.861Z,52.50
2023-01-23T21:10:25.825Z,52.70
2023-01-23T21:12:53.700Z,52.40
2023-01-23T21:15:21.653Z,52.90
2023-01-23T21:17:50.831Z,52.50
2023-01-23T21:20:19.176Z,53.00
2023-01-23T21:22:47.956Z,52.90
2023-01-23T21:25:15.888Z,52.70
2023-01-23T21:27:43.986Z,52.30
2023-01-23T21:30:12.641Z,53.00
2023-01-23T21:32:40.670Z,53.30
2023-01-23T21:35:10.433Z,52.80
2023-01-23T21:37:38.397Z,52.60
2023-01-23T21:40:07.771Z,52.40
2023-01-23T21:42:35.658Z,52.60
2023-01-23T21:45:03.543Z,52.60
2023-01-23T21:47:31.219Z,52.50
2023-01-23T21:49:59.501Z,52.40
2023-01-23T21:52:29.606Z,52.40
2023-01-23T21:54:58.189Z,52.10
2023-01-23T21:57:26.099Z,51.70
2023-01-23T22:00:07.757Z,52.20
2023-01-23T22:02:35.480Z,52.30
2023-01-23T22:05:03.824Z,52.40
2023-01-23T22:07:33.101Z,52.30
2023-01-23T22:10:01.044Z,52.30
2023-01-23T22:12:29.057Z,52.30
2023-01-23T22:14:57.039Z,52.10
2023-01-23T22:17:24.967Z,51.90
2023-01-23T22:19:53.441Z,52.40
2023-01-23T22:22:21.401Z,52.40
2023-01-23T22:24:50.444Z,52.20
2023-01-23T22:27:18.338Z,52.30
2023-01-23T22:29:46.044Z,52.70
2023-01-23T22:32:13.805Z,52.20
2023-01-23T22:34:41.516Z,52.70
2023-01-23T22:37:09.233Z,52.50
2023-01-23T22:39:36.930Z,53.30
2023-01-23T22:42:06.187Z,52.30
2023-01-23T22:44:34.132Z,52.60
2023-01-23T22:47:02.363Z,52.50
2023-01-23T22:49:30.129Z,52.60
2023-01-23T22:51:57.837Z,52.60
2023-01-23T22:54:25.539Z,52.80
2023-01-23T22:56:53.677Z,53.00
2023-01-23T22:59:22.708Z,53.00
2023-01-23T23:01:50.883Z,52.50
2023-01-23T23:04:18.571Z,52.60
2023-01-23T23:06:46.270Z,52.60
2023-01-23T23:09:14.113Z,52.70
2023-01-23T23:11:41.966Z,52.70
2023-01-23T23:14:10.787Z,52.60
2023-01-23T23:16:40.979Z,52.70
2023-01-23T23:19:10.192Z,52.60
2023-01-23T23:21:38.324Z,52.70
2023-01-23T23:24:07.545Z,52.70
2023-01-23T23:26:35.511Z,52.80
2023-01-23T23:29:03.301Z,52.80
2023-01-23T23:31:31.140Z,52.90
2023-01-23T23:34:00.450Z,52.90
2023-01-23T23:36:28.212Z,53.00
2023-01-23T23:38:56.366Z,52.90
2023-01-23T23:41:24.062Z,53.00
2023-01-23T23:43:52.164Z,52.80
2023-01-23T23:46:20.113Z,52.90
2023-01-23T23:48:48.127Z,52.80
2023-01-23T23:51:18.617Z,52.60
2023-01-23T23:53:46.586Z,52.70
2023-01-23T23:56:18.374Z,52.80
2023-01-23T23:58:46.756Z,52.40
